createdAt,value
2023-03-01T00:01:05.738Z,73.06
2023-03-01T00:03:33.652Z,72.75
2023-03-01T00:06:01.529Z,73.16
2023-03-01T00:08:29.304Z,73.93
2023-03-01T00:11:05.299Z,74.21
2023-03-01T00:13:32.610Z,74.52
2023-03-01T00:16:00.118Z,74.39
2023-03-01T00:18:27.236Z,74.70
2023-03-01T00:20:56.215Z,74.12
2023-03-01T00:23:24.601Z,73.56
2023-03-01T00:25:52.127Z,74.02
2023-03-01T00:28:19.847Z,74.82
2023-03-01T00:30:47.749Z,74.08
2023-03-01T00:33:14.922Z,74.06
2023-03-01T00:35:42.185Z,74.85
2023-03-01T00:38:09.951Z,75.11
2023-03-01T00:40:37.760Z,74.75
2023-03-01T00:43:05.421Z,74.79
2023-03-01T00:45:34.160Z,75.00
2023-03-01T00:48:01.553Z,75.60
2023-03-01T00:50:28.966Z,74.90
2023-03-01T00:52:56.808Z,74.94
2023-03-01T00:55:25.073Z,74.01
2023-03-01T00:57:52.513Z,73.94
2023-03-01T01:00:21.328Z,74.30
2023-03-01T01:02:48.613Z,73.97
2023-03-01T01:05:15.993Z,73.47
2023-03-01T01:07:43.373Z,73.86
2023-03-01T01:10:18.046Z,73.41
2023-03-01T01:12:46.785Z,73.25
2023-03-01T01:15:15.197Z,73.59
2023-03-01T01:17:42.422Z,73.04
2023-03-01T01:20:10.201Z,73.04
2023-03-01T01:22:37.387Z,72.18
2023-03-01T01:25:04.986Z,73.46
2023-03-01T01:27:32.474Z,73.94
2023-03-01T01:29:59.558Z,73.54
2023-03-01T01:32:27.451Z,73.40
2023-03-01T01:34:55.040Z,73.46
2023-03-01T01:37:22.816Z,73.30
2023-03-01T01:39:49.933Z,73.31
2023-03-01T01:42:18.931Z,74.04
2023-03-01T01:44:49.345Z,74.08
2023-03-01T01:47:21.511Z,74.15
2023-03-01T01:49:54.665Z,73.48
2023-03-01T01:52:26.480Z,74.02
2023-03-01T01:55:02.559Z,74.23
2023-03-01T01:57:52.674Z,73.24
2023-03-01T02:00:23.424Z,73.50
2023-03-01T02:02:56.189Z,73.82
2023-03-01T02:06:02.264Z,74.32
2023-03-01T02:08:31.632Z,75.00
2023-03-01T02:11:05.241Z,75.00
2023-03-01T02:13:34.756Z,75.18
2023-03-01T02:16:14.322Z,75.01
2023-03-01T02:18:43.257Z,75.82
2023-03-01T02:21:20.537Z,74.74
2023-03-01T02:23:48.124Z,74.98
2023-03-01T02:26:21.512Z,74.31
2023-03-01T02:28:48.943Z,74.88
2023-03-01T02:31:39.482Z,75.18
2023-03-01T02:34:08.155Z,76.27
2023-03-01T02:36:38.819Z,75.93
2023-03-01T02:39:15.223Z,76.01
2023-03-01T02:41:46.891Z,75.81
2023-03-01T02:44:14.243Z,76.37
2023-03-01T02:46:47.732Z,76.05
2023-03-01T02:49:27.486Z,76.87
2023-03-01T02:52:23.394Z,76.14
2023-03-01T02:55:15.139Z,76.79
2023-03-01T02:57:45.314Z,77.10
2023-03-01T03:00:20.611Z,78.28
2023-03-01T03:02:50.126Z,78.38
2023-03-01T03:05:21.999Z,79.61
2023-03-01T03:07:50.563Z,79.19
2023-03-01T03:10:22.796Z,78.97
2023-03-01T03:13:04.595Z,79.87
2023-03-01T03:15:32.383Z,80.01
2023-03-01T03:18:00.246Z,79.53
2023-03-01T03:20:28.638Z,79.61
2023-03-01T03:22:59.468Z,79.76
2023-03-01T03:25:28.712Z,79.36
2023-03-01T03:28:00.054Z,79.80
2023-03-01T03:30:31.182Z,80.23
2023-03-01T03:33:00.107Z,79.80
2023-03-01T03:35:33.799Z,79.99
2023-03-01T03:38:06.738Z,79.72
2023-03-01T03:40:43.254Z,79.74
2023-03-01T03:43:19.911Z,80.23
2023-03-01T03:45:48.471Z,80.56
2023-03-01T03:48:16.869Z,81.20
2023-03-01T03:50:50.027Z,80.87
2023-03-01T03:53:17.835Z,80.43
2023-03-01T03:55:45.589Z,80.42
2023-03-01T03:58:12.625Z,80.98
2023-03-01T04:00:42.901Z,80.24
2023-03-01T04:03:12.401Z,79.88
2023-03-01T04:05:40.849Z,79.53
2023-03-01T04:08:09.481Z,79.75
2023-03-01T04:10:39.560Z,79.62
2023-03-01T04:13:08.251Z,79.45
2023-03-01T04:15:36.423Z,79.50
2023-03-01T04:18:04.596Z,80.42
2023-03-01T04:20:35.696Z,79.83
2023-03-01T04:23:12.138Z,80.01
2023-03-01T04:25:47.056Z,79.57
2023-03-01T04:28:14.066Z,80.15
2023-03-01T04:30:42.405Z,79.64
2023-03-01T04:33:10.951Z,80.21
2023-03-01T04:35:38.642Z,79.93
2023-03-01T04:38:06.963Z,79.87
2023-03-01T04:40:34.229Z,79.86
2023-03-01T04:43:01.881Z,79.73
2023-03-01T04:45:29.265Z,80.38
2023-03-01T04:47:59.204Z,80.43
2023-03-01T04:50:26.741Z,80.56
2023-03-01T04:52:54.394Z,79.76
2023-03-01T04:55:21.493Z,79.53
2023-03-01T04:57:49.419Z,79.52
2023-03-01T05:00:22.794Z,78.83
2023-03-01T05:02:54.346Z,77.22
2023-03-01T05:05:29.812Z,77.14
2023-03-01T05:07:58.963Z,77.84
2023-03-01T05:10:30.192Z,78.44
2023-03-01T05:12:58.768Z,77.54
2023-03-01T05:15:27.719Z,76.87
2023-03-01T05:17:56.758Z,76.71
2023-03-01T05:20:23.913Z,77.09
2023-03-01T05:22:52.230Z,77.80
2023-03-01T05:25:19.896Z,78.37
2023-03-01T05:27:47.016Z,77.58
2023-03-01T05:30:14.526Z,77.72
2023-03-01T05:32:47.560Z,74.66
2023-03-01T05:35:16.362Z,74.65
2023-03-01T05:37:46.006Z,76.46
2023-03-01T05:40:19.197Z,77.09
2023-03-01T05:42:53.008Z,77.16
2023-03-01T05:45:20.811Z,77.60
2023-03-01T05:47:49.780Z,77.63
2023-03-01T05:50:28.352Z,78.00
2023-03-01T05:53:01.590Z,77.70
2023-03-01T05:55:30.514Z,77.19
2023-03-01T05:58:05.596Z,76.88
2023-03-01T06:00:33.035Z,77.42
2023-03-01T06:03:01.240Z,77.02
2023-03-01T06:05:28.960Z,77.27
2023-03-01T06:07:56.529Z,77.00
2023-03-01T06:10:23.909Z,77.29
2023-03-01T06:12:50.929Z,77.41
2023-03-01T06:15:18.619Z,76.60
2023-03-01T06:17:47.273Z,77.41
2023-03-01T06:20:22.900Z,77.24
2023-03-01T06:22:50.491Z,76.01
2023-03-01T06:25:21.081Z,75.81
2023-03-01T06:27:49.672Z,76.07
2023-03-01T06:30:19.063Z,75.62
2023-03-01T06:32:46.299Z,75.78
2023-03-01T06:35:19.114Z,75.65
2023-03-01T06:37:48.290Z,75.53
2023-03-01T06:40:16.347Z,76.62
2023-03-01T06:42:49.023Z,75.04
2023-03-01T06:45:16.639Z,75.47
2023-03-01T06:47:43.777Z,75.28
2023-03-01T06:50:11.612Z,74.80
2023-03-01T06:52:39.564Z,75.07
2023-03-01T06:55:07.640Z,75.53
2023-03-01T06:57:34.689Z,74.25
2023-03-01T07:00:02.330Z,74.30
2023-03-01T07:02:29.344Z,74.29
2023-03-01T07:04:56.359Z,73.95
2023-03-01T07:07:23.753Z,73.87
2023-03-01T07:09:51.080Z,73.86
2023-03-01T07:12:18.116Z,73.90
2023-03-01T07:14:45.588Z,73.58
2023-03-01T07:17:12.685Z,73.60
2023-03-01T07:19:39.799Z,72.74
2023-03-01T07:22:08.866Z,72.21
2023-03-01T07:24:36.139Z,73.42
2023-03-01T07:27:03.428Z,71.46
2023-03-01T07:29:30.963Z,71.77
2023-03-01T07:31:58.098Z,71.30
2023-03-01T07:34:25.382Z,71.54
2023-03-01T07:36:53.379Z,71.78
2023-03-01T07:39:20.541Z,71.27
2023-03-01T07:41:47.604Z,71.30
2023-03-01T07:44:15.972Z,70.86
2023-03-01T07:46:43.178Z,70.63
2023-03-01T07:49:10.198Z,69.36
2023-03-01T07:51:37.931Z,69.47
2023-03-01T07:54:05.070Z,69.67
2023-03-01T07:56:32.507Z,69.06
2023-03-01T07:59:00.532Z,67.05
2023-03-01T08:01:27.614Z,66.22
2023-03-01T08:03:55.003Z,66.42
2023-03-01T08:06:22.095Z,67.12
2023-03-01T08:08:49.119Z,66.32
2023-03-01T08:11:16.774Z,66.43
2023-03-01T08:13:44.754Z,66.21
2023-03-01T08:16:15.481Z,66.44
2023-03-01T08:18:43.902Z,64.83
2023-03-01T08:21:16.760Z,64.16
2023-03-01T08:23:44.618Z,62.97
2023-03-01T08:26:14.989Z,62.81
2023-03-01T08:28:42.459Z,62.58
2023-03-01T08:31:24.730Z,63.14
2023-03-01T08:33:57.467Z,62.61
2023-03-01T08:36:30.298Z,62.70
2023-03-01T08:38:58.085Z,61.05
2023-03-01T08:41:26.022Z,60.77
2023-03-01T08:43:53.859Z,61.53
2023-03-01T08:46:20.940Z,61.14
2023-03-01T08:48:48.348Z,60.81
2023-03-01T08:51:19.024Z,60.70
2023-03-01T08:53:46.518Z,60.80
2023-03-01T08:56:14.126Z,60.58
2023-03-01T08:58:44.320Z,60.46
2023-03-01T09:01:12.534Z,60.01
2023-03-01T09:03:40.186Z,61.11
2023-03-01T09:06:08.607Z,58.81
2023-03-01T09:08:40.774Z,58.52
2023-03-01T09:11:14.257Z,58.83
2023-03-01T09:13:44.132Z,59.13
2023-03-01T09:16:13.400Z,56.78
2023-03-01T09:18:41.322Z,56.93
2023-03-01T09:21:15.522Z,56.95
2023-03-01T09:23:46.544Z,55.34
2023-03-01T09:26:23.245Z,54.94
2023-03-01T09:28:52.686Z,54.71
2023-03-01T09:31:21.873Z,53.44
2023-03-01T09:33:50.917Z,54.11
2023-03-01T09:36:21.804Z,55.37
2023-03-01T09:38:49.618Z,53.91
2023-03-01T09:41:16.594Z,54.41
2023-03-01T09:43:46.456Z,53.71
2023-03-01T09:46:19.991Z,54.77
2023-03-01T09:48:56.444Z,54.70
2023-03-01T09:51:35.589Z,54.91
2023-03-01T09:54:09.319Z,54.69
2023-03-01T09:56:42.338Z,54.80
2023-03-01T09:59:12.527Z,54.23
2023-03-01T10:02:21.565Z,53.43
2023-03-01T10:04:52.472Z,53.69
2023-03-01T10:08:12.208Z,54.01
2023-03-01T10:10:43.930Z,53.60
2023-03-01T10:13:42.994Z,53.75
2023-03-01T10:16:14.922Z,53.99
2023-03-01T10:18:43.354Z,53.71
2023-03-01T10:21:18.052Z,53.05
2023-03-01T10:23:45.452Z,53.40
2023-03-01T10:26:21.893Z,53.38
2023-03-01T10:28:54.907Z,53.36
2023-03-01T10:31:30.385Z,54.22
2023-03-01T10:33:58.967Z,54.35
2023-03-01T10:36:26.314Z,55.13
2023-03-01T10:38:57.816Z,54.93
2023-03-01T10:41:27.398Z,54.14
2023-03-01T10:43:57.670Z,54.74
2023-03-01T10:46:36.450Z,54.06
2023-03-01T10:49:06.796Z,54.04
2023-03-01T10:51:34.073Z,54.11
2023-03-01T10:54:03.323Z,53.20
2023-03-01T10:56:48.307Z,52.77
2023-03-01T10:59:35.159Z,52.69
2023-03-01T11:02:24.521Z,53.68
2023-03-01T11:05:20.504Z,52.25
2023-03-01T11:07:50.336Z,52.62
2023-03-01T11:10:33.873Z,53.70
2023-03-01T11:13:15.297Z,53.06
2023-03-01T11:15:43.206Z,51.48
2023-03-01T11:18:33.934Z,51.36
2023-03-01T11:21:05.406Z,51.56
2023-03-01T11:23:33.966Z,51.14
2023-03-01T11:26:06.855Z,50.30
2023-03-01T11:28:38.830Z,48.86
2023-03-01T11:31:10.030Z,48.00
2023-03-01T11:33:49.478Z,47.74
2023-03-01T11:36:25.664Z,47.85
2023-03-01T11:38:54.918Z,48.01
2023-03-01T11:41:27.325Z,48.27
2023-03-01T11:44:02.387Z,48.84
2023-03-01T11:46:47.913Z,49.56
2023-03-01T11:50:01.942Z,49.78
2023-03-01T11:52:35.038Z,50.47
2023-03-01T11:55:21.189Z,50.58
2023-03-01T11:58:16.028Z,52.49
2023-03-01T12:01:05.824Z,52.23
2023-03-01T12:04:10.938Z,50.56
2023-03-01T12:07:01.248Z,51.08
2023-03-01T12:09:47.138Z,50.44
2023-03-01T12:12:39.643Z,50.31
2023-03-01T12:15:48.728Z,50.03
2023-03-01T12:18:34.836Z,49.60
2023-03-01T12:21:22.982Z,48.69
2023-03-01T12:24:02.819Z,48.69
2023-03-01T12:26:59.691Z,49.35
2023-03-01T12:29:59.057Z,49.31
2023-03-01T12:33:00.755Z,49.60
2023-03-01T12:36:09.371Z,50.78
2023-03-01T12:38:49.582Z,50.03
2023-03-01T12:41:16.535Z,49.53
2023-03-01T12:43:58.849Z,49.43
2023-03-01T12:46:46.978Z,48.70
2023-03-01T12:49:18.856Z,49.74
2023-03-01T12:51:59.909Z,48.59
2023-03-01T12:54:34.445Z,48.61
2023-03-01T12:57:07.412Z,48.65
2023-03-01T12:59:45.637Z,48.10
2023-03-01T13:02:37.094Z,48.06
2023-03-01T13:05:28.221Z,49.94
2023-03-01T13:08:13.892Z,49.63
2023-03-01T13:10:41.211Z,48.30
2023-03-01T13:13:21.825Z,47.91
2023-03-01T13:15:50.223Z,47.94
2023-03-01T13:18:17.430Z,47.60
2023-03-01T13:20:44.400Z,47.17
2023-03-01T13:23:21.464Z,48.77
2023-03-01T13:26:12.339Z,49.22
2023-03-01T13:28:42.895Z,49.40
2023-03-01T13:31:31.566Z,49.01
2023-03-01T13:34:10.226Z,49.87
2023-03-01T13:36:37.296Z,49.43
2023-03-01T13:39:27.512Z,49.01
2023-03-01T13:41:58.428Z,49.34
2023-03-01T13:44:37.241Z,50.29
2023-03-01T13:47:24.840Z,51.40
2023-03-01T13:49:58.772Z,51.06
2023-03-01T13:52:44.048Z,51.00
2023-03-01T13:55:22.456Z,50.85
2023-03-01T13:57:55.198Z,51.85
2023-03-01T14:00:36.371Z,51.99
2023-03-01T14:03:24.344Z,51.71
2023-03-01T14:06:14.833Z,52.36
2023-03-01T14:08:45.960Z,52.08
2023-03-01T14:11:21.961Z,52.10
2023-03-01T14:14:01.094Z,52.62
2023-03-01T14:17:06.206Z,52.15
2023-03-01T14:19:34.813Z,53.13
2023-03-01T14:22:23.288Z,53.37
2023-03-01T14:25:06.347Z,53.56
2023-03-01T14:27:42.883Z,53.95
2023-03-01T14:30:23.001Z,53.76
2023-03-01T14:33:01.596Z,53.44
2023-03-01T14:35:35.376Z,53.58
2023-03-01T14:38:03.018Z,53.00
2023-03-01T14:40:35.522Z,52.79
2023-03-01T14:43:09.814Z,52.95
2023-03-01T14:45:37.311Z,53.11
2023-03-01T14:48:07.019Z,52.45
2023-03-01T14:50:37.100Z,52.32
2023-03-01T14:53:08.801Z,52.58
2023-03-01T14:55:39.700Z,52.46
2023-03-01T14:58:13.311Z,52.29
2023-03-01T15:00:50.223Z,52.12
2023-03-01T15:03:40.255Z,52.21
2023-03-01T15:06:09.283Z,53.05
2023-03-01T15:08:42.092Z,52.74
2023-03-01T15:11:15.105Z,53.46
2023-03-01T15:13:42.836Z,53.61
2023-03-01T15:16:33.098Z,54.43
2023-03-01T15:19:08.012Z,54.38
2023-03-01T15:21:38.012Z,53.77
2023-03-01T15:24:20.717Z,53.28
2023-03-01T15:26:56.204Z,53.14
2023-03-01T15:29:30.820Z,53.80
2023-03-01T15:32:05.088Z,54.10
2023-03-01T15:34:39.942Z,53.70
2023-03-01T15:37:28.467Z,54.38
2023-03-01T15:39:58.029Z,54.10
2023-03-01T15:42:38.683Z,54.54
2023-03-01T15:45:28.243Z,54.84
2023-03-01T15:48:02.444Z,55.07
2023-03-01T15:50:34.985Z,55.29
2023-03-01T15:53:07.627Z,55.50
2023-03-01T15:55:35.040Z,56.15
2023-03-01T15:58:13.152Z,56.36
2023-03-01T16:00:48.652Z,56.86
2023-03-01T16:03:26.059Z,57.26
2023-03-01T16:05:53.091Z,57.06
2023-03-01T16:08:20.252Z,57.42
2023-03-01T16:10:49.378Z,58.16
2023-03-01T16:13:16.443Z,58.75
2023-03-01T16:15:44.830Z,59.26
2023-03-01T16:18:12.814Z,60.23
2023-03-01T16:20:41.141Z,60.79
2023-03-01T16:23:09.788Z,61.35
2023-03-01T16:25:37.448Z,61.73
2023-03-01T16:28:09.693Z,62.31
2023-03-01T16:30:40.430Z,63.00
2023-03-01T16:33:24.301Z,63.56
2023-03-01T16:35:56.129Z,64.03
2023-03-01T16:38:23.247Z,64.82
2023-03-01T16:40:52.278Z,65.43
2023-03-01T16:43:19.873Z,66.29
2023-03-01T16:45:47.601Z,66.69
2023-03-01T16:48:14.982Z,67.11
2023-03-01T16:50:42.383Z,68.00
2023-03-01T16:53:09.494Z,68.89
2023-03-01T16:55:36.827Z,69.95
2023-03-01T16:58:05.276Z,70.51
2023-03-01T17:00:32.513Z,71.03
2023-03-01T17:02:59.658Z,71.36
2023-03-01T17:05:27.260Z,71.78
2023-03-01T17:07:56.643Z,72.51
2023-03-01T17:10:23.816Z,72.84
2023-03-01T17:12:51.374Z,73.33
2023-03-01T17:15:18.685Z,73.84
2023-03-01T17:17:45.777Z,74.25
2023-03-01T17:20:13.648Z,74.68
2023-03-01T17:22:40.644Z,74.86
2023-03-01T17:25:11.090Z,75.05
2023-03-01T17:27:39.017Z,74.78
2023-03-01T17:30:08.029Z,75.07
2023-03-01T17:32:35.241Z,75.28
2023-03-01T17:35:02.631Z,75.65
2023-03-01T17:37:29.661Z,76.07
2023-03-01T17:39:56.772Z,76.40
2023-03-01T17:42:24.141Z,76.48
2023-03-01T17:44:51.153Z,76.48
2023-03-01T17:47:18.405Z,76.59
2023-03-01T17:49:45.746Z,77.03
2023-03-01T17:52:12.839Z,77.86
2023-03-01T17:54:40.372Z,77.57
2023-03-01T17:57:07.787Z,78.12
2023-03-01T17:59:37.709Z,78.71
2023-03-01T18:02:04.763Z,78.66
2023-03-01T18:04:32.597Z,78.66
2023-03-01T18:06:59.912Z,79.10
2023-03-01T18:09:28.289Z,79.32
2023-03-01T18:11:55.662Z,79.61
2023-03-01T18:14:22.736Z,80.10
2023-03-01T18:16:49.930Z,80.47
2023-03-01T18:19:17.453Z,80.64
2023-03-01T18:21:44.634Z,81.09
2023-03-01T18:24:11.682Z,80.64
2023-03-01T18:26:40.217Z,81.20
2023-03-01T18:29:08.077Z,81.67
2023-03-01T18:31:35.258Z,81.75
2023-03-01T18:34:04.242Z,82.26
2023-03-01T18:36:34.671Z,82.25
2023-03-01T18:39:04.142Z,82.27
2023-03-01T18:41:32.944Z,81.81
2023-03-01T18:44:02.085Z,81.48
2023-03-01T18:46:29.439Z,81.83
2023-03-01T18:48:56.930Z,82.23
2023-03-01T18:51:28.534Z,82.79
2023-03-01T18:53:58.622Z,82.09
2023-03-01T18:56:26.558Z,82.14
2023-03-01T18:58:53.636Z,82.52
2023-03-01T19:01:25.843Z,82.54
2023-03-01T19:03:54.723Z,82.56
2023-03-01T19:06:22.345Z,81.96
2023-03-01T19:08:50.182Z,82.35
2023-03-01T19:11:17.761Z,82.94
2023-03-01T19:13:46.788Z,83.44
2023-03-01T19:16:19.481Z,83.88
2023-03-01T19:18:50.431Z,84.18
2023-03-01T19:21:19.830Z,83.40
2023-03-01T19:23:48.768Z,83.24
2023-03-01T19:26:19.155Z,83.39
2023-03-01T19:28:46.898Z,83.50
2023-03-01T19:31:17.408Z,83.69
2023-03-01T19:33:44.653Z,84.33
2023-03-01T19:36:13.740Z,85.10
2023-03-01T19:38:42.234Z,85.63
2023-03-01T19:41:12.267Z,85.79
2023-03-01T19:43:39.580Z,86.16
2023-03-01T19:46:06.742Z,86.44
2023-03-01T19:48:34.121Z,85.84
2023-03-01T19:51:01.536Z,85.75
2023-03-01T19:53:28.787Z,86.39
2023-03-01T19:56:00.287Z,86.71
2023-03-01T19:58:28.941Z,87.09
2023-03-01T20:00:58.907Z,87.32
2023-03-01T20:03:36.328Z,87.52
2023-03-01T20:06:12.634Z,87.74
2023-03-01T20:08:40.045Z,88.04
2023-03-01T20:11:10.574Z,88.19
2023-03-01T20:13:37.803Z,88.42
2023-03-01T20:16:05.976Z,88.66
2023-03-01T20:18:33.602Z,89.08
2023-03-01T20:21:01.785Z,89.46
2023-03-01T20:23:30.058Z,89.68
2023-03-01T20:26:09.353Z,89.99
2023-03-01T20:28:37.341Z,90.29
2023-03-01T20:31:10.944Z,90.52
2023-03-01T20:33:38.942Z,90.63
2023-03-01T20:36:07.303Z,91.05
2023-03-01T20:38:35.034Z,91.43
2023-03-01T20:41:13.595Z,91.48
2023-03-01T20:43:42.147Z,90.97
2023-03-01T20:46:11.859Z,91.08
2023-03-01T20:48:42.960Z,91.16
2023-03-01T20:51:12.215Z,91.20
2023-03-01T20:53:40.331Z,91.26
2023-03-01T20:56:10.315Z,91.34
2023-03-01T20:58:38.069Z,91.31
2023-03-01T21:01:06.331Z,91.27
2023-03-01T21:03:34.016Z,91.23
2023-03-01T21:06:03.404Z,91.21
2023-03-01T21:08:30.813Z,91.24
2023-03-01T21:10:58.671Z,91.28
2023-03-01T21:13:27.387Z,91.30
2023-03-01T21:16:00.121Z,91.48
2023-03-01T21:18:29.916Z,91.48
2023-03-01T21:21:18.196Z,90.96
2023-03-01T21:23:46.288Z,91.19
2023-03-01T21:26:15.096Z,91.08
2023-03-01T21:28:43.685Z,90.46
2023-03-01T21:31:15.023Z,90.35
2023-03-01T21:33:48.341Z,90.42
2023-03-01T21:36:16.235Z,90.63
2023-03-01T21:38:46.700Z,90.89
2023-03-01T21:41:22.101Z,91.28
2023-03-01T21:43:50.878Z,91.57
2023-03-01T21:46:21.047Z,91.69
2023-03-01T21:48:50.021Z,90.76
2023-03-01T21:51:19.565Z,89.89
2023-03-01T21:53:46.891Z,90.05
2023-03-01T21:56:19.754Z,89.58
2023-03-01T21:58:47.650Z,88.59
2023-03-01T22:01:17.698Z,88.53
2023-03-01T22:03:45.930Z,88.40
2023-03-01T22:06:23.064Z,88.50
2023-03-01T22:08:52.374Z,89.33
2023-03-01T22:11:20.598Z,90.08
2023-03-01T22:13:51.811Z,90.57
2023-03-01T22:16:25.226Z,90.71
2023-03-01T22:18:52.485Z,90.02
2023-03-01T22:21:21.366Z,89.88
2023-03-01T22:23:48.736Z,89.94
2023-03-01T22:26:34.756Z,90.13
2023-03-01T22:29:05.136Z,89.98
2023-03-01T22:31:32.214Z,90.25
2023-03-01T22:33:59.887Z,90.18
2023-03-01T22:36:28.015Z,89.97
2023-03-01T22:39:00.279Z,89.91
2023-03-01T22:41:33.043Z,90.12
2023-03-01T22:44:00.535Z,89.69
2023-03-01T22:46:30.527Z,89.44
2023-03-01T22:48:58.061Z,89.65
2023-03-01T22:51:28.911Z,89.75
2023-03-01T22:53:57.066Z,90.08
2023-03-01T22:56:28.932Z,88.97
2023-03-01T22:59:02.454Z,88.74
2023-03-01T23:01:31.000Z,87.98
2023-03-01T23:03:58.377Z,86.81
2023-03-01T23:06:25.587Z,85.08
2023-03-01T23:08:55.781Z,82.16
2023-03-01T23:11:24.997Z,80.67
2023-03-01T23:13:54.034Z,80.37
2023-03-01T23:16:26.070Z,80.04
2023-03-01T23:18:59.112Z,79.16
2023-03-01T23:21:26.849Z,73.91
2023-03-01T23:23:55.607Z,71.49
2023-03-01T23:26:26.151Z,70.89
2023-03-01T23:28:54.530Z,71.92
2023-03-01T23:31:21.963Z,72.21
2023-03-01T23:33:49.636Z,71.73
2023-03-01T23:36:29.525Z,71.95
2023-03-01T23:39:02.513Z,71.15
2023-03-01T23:41:32.346Z,70.90
2023-03-01T23:44:01.980Z,69.69
2023-03-01T23:46:33.829Z,69.68
2023-03-01T23:49:02.089Z,69.77
2023-03-01T23:51:30.024Z,70.08
2023-03-01T23:54:01.657Z,69.59
2023-03-01T23:56:31.992Z,69.77
2023-03-01T23:59:02.393Z,69.98
